createdAt,value
2023-03-08T00:01:34.970Z,98178.23
2023-03-08T00:04:04.720Z,98180.39
2023-03-08T00:06:33.269Z,98183.38
2023-03-08T00:09:06.351Z,98179.64
2023-03-08T00:11:34.739Z,98179.66
2023-03-08T00:14:03.828Z,98176.74
2023-03-08T00:16:32.211Z,98172.77
2023-03-08T00:19:00.593Z,98170.05
2023-03-08T00:21:30.009Z,98172.14
2023-03-08T00:24:00.113Z,98161.50
2023-03-08T00:26:28.494Z,98154.10
2023-03-08T00:28:57.123Z,98153.17
2023-03-08T00:31:26.769Z,98148.82
2023-03-08T00:33:55.602Z,98150.30
2023-03-08T00:36:26.135Z,98156.98
2023-03-08T00:38:56.541Z,98152.33
2023-03-08T00:41:24.815Z,98146.86
2023-03-08T00:43:54.219Z,98143.77
2023-03-08T00:46:22.727Z,98140.08
2023-03-08T00:48:55.077Z,98127.85
2023-03-08T00:51:23.764Z,98121.30
2023-03-08T00:53:54.296Z,98113.76
2023-03-08T00:56:22.873Z,98110.25
2023-03-08T00:58:52.152Z,98112.98
2023-03-08T01:01:20.891Z,98111.81
2023-03-08T01:03:51.442Z,98110.27
2023-03-08T01:06:20.533Z,98117.29
2023-03-08T01:08:50.403Z,98118.38
2023-03-08T01:11:26.224Z,98116.23
2023-03-08T01:13:54.738Z,98115.12
2023-03-08T01:16:28.125Z,98115.88
2023-03-08T01:18:58.670Z,98116.60
2023-03-08T01:21:28.325Z,98118.36
2023-03-08T01:23:57.066Z,98120.61
2023-03-08T01:26:26.490Z,98122.76
2023-03-08T01:28:58.332Z,98124.44
2023-03-08T01:31:28.718Z,98123.02
2023-03-08T01:33:58.161Z,98116.66
2023-03-08T01:36:27.886Z,98110.32
2023-03-08T01:38:56.670Z,98102.75
2023-03-08T01:41:27.223Z,98102.69
2023-03-08T01:43:58.336Z,98108.95
2023-03-08T01:46:36.758Z,98111.10
2023-03-08T01:49:28.276Z,98100.31
2023-03-08T01:52:12.024Z,98099.89
2023-03-08T01:54:43.888Z,98101.16
2023-03-08T01:57:26.081Z,98098.12
2023-03-08T02:00:04.600Z,98097.58
2023-03-08T02:02:58.680Z,98102.45
2023-03-08T02:05:27.572Z,98097.20
2023-03-08T02:08:00.163Z,98094.63
2023-03-08T02:10:32.526Z,98086.64
2023-03-08T02:13:07.875Z,98088.00
2023-03-08T02:15:39.219Z,98086.95
2023-03-08T02:18:08.011Z,98083.63
2023-03-08T02:20:40.901Z,98083.34
2023-03-08T02:23:09.793Z,98079.14
2023-03-08T02:25:38.382Z,98074.36
2023-03-08T02:28:10.139Z,98076.32
2023-03-08T02:30:38.827Z,98080.35
2023-03-08T02:33:07.930Z,98079.36
2023-03-08T02:35:39.006Z,98078.14
2023-03-08T02:38:07.440Z,98077.61
2023-03-08T02:40:38.631Z,98081.08
2023-03-08T02:43:07.178Z,98079.77
2023-03-08T02:45:36.992Z,98081.65
2023-03-08T02:48:06.419Z,98078.00
2023-03-08T02:50:36.829Z,98072.29
2023-03-08T02:53:05.410Z,98071.30
2023-03-08T02:55:37.483Z,98063.24
2023-03-08T02:58:10.486Z,98063.29
2023-03-08T03:00:39.162Z,98061.20
2023-03-08T03:03:08.965Z,98061.55
2023-03-08T03:05:43.809Z,98062.13
2023-03-08T03:08:16.485Z,98061.08
2023-03-08T03:10:46.019Z,98062.59
2023-03-08T03:13:17.543Z,98057.89
2023-03-08T03:15:46.053Z,98057.00
2023-03-08T03:18:16.653Z,98051.48
2023-03-08T03:20:45.145Z,98047.53
2023-03-08T03:23:17.313Z,98049.79
2023-03-08T03:25:50.722Z,98041.34
2023-03-08T03:28:21.336Z,98042.70
2023-03-08T03:30:52.058Z,98025.96
2023-03-08T03:33:21.783Z,98031.03
2023-03-08T03:35:54.684Z,98031.17
2023-03-08T03:38:23.867Z,98033.08
2023-03-08T03:41:22.882Z,98028.98
2023-03-08T03:43:54.752Z,98022.55
2023-03-08T03:46:27.669Z,98008.77
2023-03-08T03:48:57.263Z,98001.54
2023-03-08T03:51:27.152Z,97999.20
2023-03-08T03:54:07.286Z,97996.58
2023-03-08T03:56:36.175Z,97998.30
2023-03-08T03:59:04.788Z,97996.28
2023-03-08T04:01:40.740Z,97996.15
2023-03-08T04:04:23.257Z,97994.23
2023-03-08T04:06:53.583Z,97993.77
2023-03-08T04:09:25.474Z,97993.73
2023-03-08T04:12:08.364Z,97981.70
2023-03-08T04:14:37.464Z,98003.19
2023-03-08T04:17:07.584Z,98010.94
2023-03-08T04:19:55.421Z,98014.21
2023-03-08T04:22:26.362Z,98007.20
2023-03-08T04:24:58.733Z,98004.34
2023-03-08T04:27:35.925Z,97999.64
2023-03-08T04:30:05.225Z,97997.63
2023-03-08T04:32:34.722Z,98000.21
2023-03-08T04:35:04.242Z,98002.06
2023-03-08T04:37:33.538Z,98006.80
2023-03-08T04:40:10.740Z,98005.88
2023-03-08T04:42:47.506Z,97994.02
2023-03-08T04:45:17.827Z,97988.60
2023-03-08T04:47:46.619Z,97973.34
2023-03-08T04:50:15.925Z,97989.65
2023-03-08T04:52:44.614Z,97986.91
2023-03-08T04:55:13.604Z,97990.55
2023-03-08T04:57:43.226Z,97988.73
2023-03-08T05:00:12.784Z,97996.96
2023-03-08T05:02:43.212Z,97995.14
2023-03-08T05:05:15.259Z,97995.49
2023-03-08T05:07:44.416Z,97999.42
2023-03-08T05:10:14.434Z,97992.45
2023-03-08T05:12:44.148Z,97990.48
2023-03-08T05:15:12.834Z,97987.34
2023-03-08T05:17:42.955Z,97985.87
2023-03-08T05:20:16.607Z,97989.00
2023-03-08T05:22:58.298Z,97986.63
2023-03-08T05:26:11.976Z,97985.91
2023-03-08T05:28:44.683Z,97982.24
2023-03-08T05:31:13.613Z,97973.96
2023-03-08T05:33:43.894Z,97969.85
2023-03-08T05:36:12.786Z,97965.39
2023-03-08T05:38:41.684Z,97969.98
2023-03-08T05:41:15.041Z,97965.54
2023-03-08T05:43:46.429Z,97960.36
2023-03-08T05:46:16.931Z,97951.80
2023-03-08T05:48:45.651Z,97946.59
2023-03-08T05:51:16.966Z,97947.37
2023-03-08T05:53:46.096Z,97945.81
2023-03-08T05:56:18.105Z,97953.14
2023-03-08T05:58:52.589Z,97956.91
2023-03-08T06:01:23.732Z,97958.73
2023-03-08T06:03:56.305Z,97957.42
2023-03-08T06:06:26.629Z,97950.80
2023-03-08T06:08:56.542Z,97957.20
2023-03-08T06:11:31.071Z,97961.55
2023-03-08T06:14:00.577Z,97959.27
2023-03-08T06:16:31.293Z,97965.26
2023-03-08T06:19:01.979Z,97967.35
2023-03-08T06:21:31.253Z,97972.40
2023-03-08T06:24:04.658Z,97970.99
2023-03-08T06:26:33.441Z,97976.13
2023-03-08T06:29:02.435Z,97976.44
2023-03-08T06:31:32.559Z,97977.53
2023-03-08T06:34:01.864Z,97978.81
2023-03-08T06:36:33.623Z,97972.36
2023-03-08T06:39:02.517Z,97963.02
2023-03-08T06:41:33.149Z,97959.64
2023-03-08T06:44:02.250Z,97951.79
2023-03-08T06:46:31.039Z,97948.05
2023-03-08T06:49:00.136Z,97946.18
2023-03-08T06:51:30.054Z,97931.05
2023-03-08T06:54:05.435Z,97944.02
2023-03-08T06:56:35.379Z,97960.76
2023-03-08T06:59:03.804Z,97955.82
2023-03-08T07:01:33.146Z,97950.84
2023-03-08T07:04:01.638Z,97952.35
2023-03-08T07:06:30.167Z,97948.26
2023-03-08T07:09:00.801Z,97933.29
2023-03-08T07:11:31.843Z,97921.52
2023-03-08T07:14:00.219Z,97944.64
2023-03-08T07:16:29.931Z,97953.48
2023-03-08T07:18:58.313Z,97956.52
2023-03-08T07:21:26.900Z,97955.73
2023-03-08T07:23:55.278Z,97952.11
2023-03-08T07:26:23.764Z,97953.55
2023-03-08T07:28:52.271Z,97949.09
2023-03-08T07:31:20.834Z,97948.80
2023-03-08T07:33:49.825Z,97946.96
2023-03-08T07:36:18.618Z,97940.52
2023-03-08T07:38:47.610Z,97938.75
2023-03-08T07:41:19.473Z,97935.81
2023-03-08T07:43:47.958Z,97932.48
2023-03-08T07:46:24.652Z,97929.52
2023-03-08T07:48:55.409Z,97926.11
2023-03-08T07:51:24.530Z,97932.33
2023-03-08T07:53:53.256Z,97938.92
2023-03-08T07:56:21.640Z,97941.73
2023-03-08T07:58:51.456Z,97936.03
2023-03-08T08:01:20.348Z,97936.41
2023-03-08T08:03:48.958Z,97930.98
2023-03-08T08:06:17.518Z,97936.20
2023-03-08T08:08:46.101Z,97941.00
2023-03-08T08:11:16.667Z,97940.06
2023-03-08T08:13:49.514Z,97935.83
2023-03-08T08:16:18.553Z,97935.92
2023-03-08T08:18:47.196Z,97932.17
2023-03-08T08:21:15.983Z,97929.20
2023-03-08T08:23:44.769Z,97920.73
2023-03-08T08:26:18.118Z,97923.75
2023-03-08T08:28:48.035Z,97925.91
2023-03-08T08:31:19.594Z,97924.99
2023-03-08T08:33:49.663Z,97930.42
2023-03-08T08:36:19.604Z,97935.55
2023-03-08T08:38:49.797Z,97925.80
2023-03-08T08:41:19.434Z,97921.11
2023-03-08T08:43:47.991Z,97921.68
2023-03-08T08:46:16.680Z,97923.28
2023-03-08T08:48:47.214Z,97926.86
2023-03-08T08:51:16.112Z,97933.19
2023-03-08T08:53:44.686Z,97931.80
2023-03-08T08:56:26.737Z,97925.80
2023-03-08T08:58:57.656Z,97926.40
2023-03-08T09:01:28.252Z,97932.15
2023-03-08T09:04:17.382Z,97939.11
2023-03-08T09:06:46.314Z,97942.13
2023-03-08T09:09:16.229Z,97940.78
2023-03-08T09:11:55.233Z,97935.71
2023-03-08T09:14:26.027Z,97935.73
2023-03-08T09:16:54.679Z,97937.09
2023-03-08T09:19:23.384Z,97940.31
2023-03-08T09:21:52.157Z,97945.36
2023-03-08T09:24:21.152Z,97938.90
2023-03-08T09:26:51.067Z,97943.10
2023-03-08T09:29:20.067Z,97952.00
2023-03-08T09:31:48.526Z,97953.55
2023-03-08T09:34:18.360Z,97943.30
2023-03-08T09:36:47.764Z,97945.45
2023-03-08T09:39:21.267Z,97951.07
2023-03-08T09:41:59.373Z,97947.22
2023-03-08T09:44:49.769Z,97956.52
2023-03-08T09:47:40.523Z,97959.64
2023-03-08T09:50:12.845Z,97945.80
2023-03-08T09:53:00.478Z,97939.02
2023-03-08T09:55:32.332Z,97927.74
2023-03-08T09:58:03.991Z,97918.34
2023-03-08T10:00:35.172Z,97919.08
2023-03-08T10:04:02.033Z,97922.27
2023-03-08T10:06:37.171Z,97938.93
2023-03-08T10:09:34.687Z,97945.17
2023-03-08T10:12:13.565Z,97939.52
2023-03-08T10:14:54.500Z,97940.83
2023-03-08T10:17:55.323Z,97932.87
2023-03-08T10:20:28.515Z,97927.48
2023-03-08T10:23:00.080Z,97923.48
2023-03-08T10:25:34.152Z,97926.89
2023-03-08T10:28:04.312Z,97928.52
2023-03-08T10:30:35.569Z,97923.86
2023-03-08T10:33:07.829Z,97921.84
2023-03-08T10:35:38.569Z,97926.73
2023-03-08T10:38:17.336Z,97923.58
2023-03-08T10:40:46.487Z,97925.90
2023-03-08T10:43:28.273Z,97922.09
2023-03-08T10:46:02.199Z,97924.26
2023-03-08T10:48:30.775Z,97925.46
2023-03-08T10:51:04.905Z,97919.66
2023-03-08T10:53:33.261Z,97902.45
2023-03-08T10:56:21.412Z,97893.44
2023-03-08T10:58:49.991Z,97886.89
2023-03-08T11:01:29.850Z,97887.05
2023-03-08T11:04:14.237Z,97883.21
2023-03-08T11:06:43.085Z,97872.62
2023-03-08T11:09:38.403Z,97874.19
2023-03-08T11:12:07.201Z,97875.41
2023-03-08T11:14:36.058Z,97878.27
2023-03-08T11:17:20.221Z,97880.80
2023-03-08T11:20:18.712Z,97883.95
2023-03-08T11:22:56.106Z,97877.63
2023-03-08T11:25:39.952Z,97872.73
2023-03-08T11:28:14.122Z,97870.27
2023-03-08T11:30:55.152Z,97862.18
2023-03-08T11:33:24.576Z,97871.19
2023-03-08T11:36:05.137Z,97876.63
2023-03-08T11:38:34.101Z,97883.13
2023-03-08T11:41:21.426Z,97878.94
2023-03-08T11:44:27.390Z,97886.68
2023-03-08T11:47:03.959Z,97894.48
2023-03-08T11:49:50.777Z,97892.90
2023-03-08T11:52:35.332Z,97891.23
2023-03-08T11:55:25.861Z,97887.18
2023-03-08T11:57:58.105Z,97885.95
2023-03-08T12:00:45.017Z,97885.83
2023-03-08T12:03:25.405Z,97874.20
2023-03-08T12:05:57.257Z,97883.33
2023-03-08T12:08:48.322Z,97886.75
2023-03-08T12:11:58.514Z,97887.27
2023-03-08T12:14:31.518Z,97882.92
2023-03-08T12:17:22.781Z,97888.61
2023-03-08T12:19:51.619Z,97876.55
2023-03-08T12:22:34.563Z,97882.39
2023-03-08T12:25:25.419Z,97899.58
2023-03-08T12:27:58.785Z,97899.27
2023-03-08T12:30:40.740Z,97887.75
2023-03-08T12:33:11.987Z,97900.64
2023-03-08T12:35:51.212Z,97903.61
2023-03-08T12:38:20.138Z,97906.64
2023-03-08T12:40:50.103Z,97912.52
2023-03-08T12:43:21.495Z,97914.37
2023-03-08T12:45:59.455Z,97913.03
2023-03-08T12:48:31.083Z,97910.85
2023-03-08T12:51:11.830Z,97913.88
2023-03-08T12:53:51.680Z,97910.63
2023-03-08T12:56:35.157Z,97909.55
2023-03-08T12:59:15.466Z,97903.50
2023-03-08T13:01:45.310Z,97898.78
2023-03-08T13:04:41.484Z,97898.73
2023-03-08T13:07:16.090Z,97898.62
2023-03-08T13:09:47.398Z,97891.40
2023-03-08T13:12:17.108Z,97889.38
2023-03-08T13:15:11.606Z,97889.88
2023-03-08T13:17:52.788Z,97887.05
2023-03-08T13:20:43.921Z,97884.76
2023-03-08T13:23:15.416Z,97874.23
2023-03-08T13:25:45.696Z,97877.20
2023-03-08T13:28:21.988Z,97883.15
2023-03-08T13:30:56.954Z,97886.42
2023-03-08T13:33:33.966Z,97881.54
2023-03-08T13:36:04.787Z,97884.46
2023-03-08T13:38:36.021Z,97878.36
2023-03-08T13:41:04.539Z,97883.09
2023-03-08T13:43:34.460Z,97888.05
2023-03-08T13:46:06.631Z,97887.39
2023-03-08T13:48:37.469Z,97879.73
2023-03-08T13:51:06.355Z,97876.46
2023-03-08T13:53:37.090Z,97878.48
2023-03-08T13:56:06.395Z,97884.38
2023-03-08T13:58:42.097Z,97884.13
2023-03-08T14:01:15.533Z,97886.36
2023-03-08T14:03:45.350Z,97889.43
2023-03-08T14:06:21.836Z,97887.23
2023-03-08T14:08:50.533Z,97889.63
2023-03-08T14:11:22.289Z,97886.21
2023-03-08T14:13:57.860Z,97888.73
2023-03-08T14:16:31.886Z,97892.95
2023-03-08T14:19:08.875Z,97903.05
2023-03-08T14:21:48.825Z,97899.88
2023-03-08T14:24:22.974Z,97910.56
2023-03-08T14:27:05.414Z,97918.20
2023-03-08T14:29:34.825Z,97928.31
2023-03-08T14:32:13.043Z,97923.23
2023-03-08T14:34:44.610Z,97927.64
2023-03-08T14:37:13.167Z,97923.91
2023-03-08T14:39:44.403Z,97913.02
2023-03-08T14:42:30.924Z,97927.05
2023-03-08T14:45:16.815Z,97943.34
2023-03-08T14:47:59.144Z,97937.84
2023-03-08T14:50:32.183Z,97942.51
2023-03-08T14:53:02.643Z,97942.34
2023-03-08T14:55:40.239Z,97947.48
2023-03-08T14:58:13.442Z,97948.13
2023-03-08T15:00:54.514Z,97949.15
2023-03-08T15:03:24.034Z,97963.74
2023-03-08T15:05:53.172Z,97967.52
2023-03-08T15:08:22.416Z,97975.12
2023-03-08T15:10:51.929Z,97978.95
2023-03-08T15:13:23.112Z,97979.63
2023-03-08T15:15:51.717Z,97982.23
2023-03-08T15:18:21.166Z,97987.21
2023-03-08T15:20:50.109Z,97984.80
2023-03-08T15:23:31.360Z,97985.55
2023-03-08T15:26:00.044Z,97983.07
2023-03-08T15:28:28.821Z,97986.13
2023-03-08T15:30:57.488Z,97992.90
2023-03-08T15:33:25.998Z,97993.11
2023-03-08T15:35:55.233Z,97997.16
2023-03-08T15:38:25.006Z,98001.48
2023-03-08T15:40:57.892Z,98005.95
2023-03-08T15:43:26.685Z,98001.59
2023-03-08T15:45:55.065Z,97999.80
2023-03-08T15:48:23.752Z,98009.30
2023-03-08T15:50:52.338Z,98008.14
2023-03-08T15:53:34.577Z,98011.50
2023-03-08T15:56:03.842Z,98013.27
2023-03-08T15:58:39.538Z,98021.67
2023-03-08T16:01:07.991Z,98018.80
2023-03-08T16:03:36.566Z,98030.89
2023-03-08T16:06:12.062Z,98025.27
2023-03-08T16:08:41.334Z,98033.67
2023-03-08T16:11:17.175Z,98035.20
2023-03-08T16:13:48.914Z,98038.91
2023-03-08T16:16:17.566Z,98042.20
2023-03-08T16:18:49.055Z,98047.48
2023-03-08T16:21:17.667Z,98054.56
2023-03-08T16:23:46.156Z,98053.94
2023-03-08T16:26:17.372Z,98059.02
2023-03-08T16:28:47.307Z,98059.39
2023-03-08T16:31:15.883Z,98063.65
2023-03-08T16:33:45.010Z,98070.06
2023-03-08T16:36:13.532Z,98080.27
2023-03-08T16:38:44.124Z,98080.08
2023-03-08T16:41:14.300Z,98080.88
2023-03-08T16:43:48.828Z,98080.73
2023-03-08T16:46:20.529Z,98085.61
2023-03-08T16:48:50.041Z,98093.66
2023-03-08T16:51:20.276Z,98102.60
2023-03-08T16:53:49.256Z,98107.35
2023-03-08T16:56:27.539Z,98105.98
2023-03-08T16:58:58.457Z,98102.14
2023-03-08T17:01:27.245Z,98096.80
2023-03-08T17:03:56.607Z,98102.88
2023-03-08T17:06:27.163Z,98110.02
2023-03-08T17:08:58.070Z,98114.79
2023-03-08T17:11:28.093Z,98118.02
2023-03-08T17:14:01.795Z,98107.91
2023-03-08T17:16:35.911Z,98106.77
2023-03-08T17:19:05.214Z,98106.41
2023-03-08T17:21:38.561Z,98105.73
2023-03-08T17:24:13.240Z,98108.05
2023-03-08T17:26:46.441Z,98108.52
2023-03-08T17:29:14.927Z,98112.95
2023-03-08T17:31:43.711Z,98109.83
2023-03-08T17:34:12.192Z,98109.34
2023-03-08T17:36:40.719Z,98106.04
2023-03-08T17:39:09.364Z,98103.91
2023-03-08T17:43:53.337Z,98103.30
2023-03-08T17:46:23.930Z,98105.79
2023-03-08T17:48:53.980Z,98111.59
2023-03-08T17:51:24.468Z,98107.15
2023-03-08T17:53:53.221Z,98100.95
2023-03-08T17:56:25.467Z,98106.56
2023-03-08T17:58:54.872Z,98110.78
2023-03-08T18:01:25.854Z,98116.23
2023-03-08T18:03:55.653Z,98111.97
2023-03-08T18:06:35.171Z,98123.20
2023-03-08T18:09:06.218Z,98133.34
2023-03-08T18:11:37.962Z,98142.94
2023-03-08T18:14:10.869Z,98146.59
2023-03-08T18:16:39.552Z,98148.23
2023-03-08T18:19:13.459Z,98147.38
2023-03-08T18:21:41.905Z,98148.35
2023-03-08T18:24:13.197Z,98143.39
2023-03-08T18:26:41.615Z,98137.13
2023-03-08T18:29:10.255Z,98151.17
2023-03-08T18:31:40.609Z,98158.35
2023-03-08T18:34:09.584Z,98154.68
2023-03-08T18:36:38.165Z,98158.29
2023-03-08T18:39:08.306Z,98159.95
2023-03-08T18:41:36.755Z,98158.25
2023-03-08T18:44:11.813Z,98153.02
2023-03-08T18:46:40.254Z,98150.23
2023-03-08T18:49:11.486Z,98147.56
2023-03-08T18:51:40.746Z,98137.83
2023-03-08T18:54:20.798Z,98125.76
2023-03-08T18:56:50.192Z,98120.88
2023-03-08T18:59:18.658Z,98126.70
2023-03-08T19:01:47.397Z,98136.13
2023-03-08T19:04:16.755Z,98138.75
2023-03-08T19:06:45.026Z,98142.54
2023-03-08T19:09:15.962Z,98146.23
2023-03-08T19:11:45.955Z,98146.27
2023-03-08T19:14:14.933Z,98151.05
2023-03-08T19:16:44.369Z,98151.99
2023-03-08T19:19:14.678Z,98148.63
2023-03-08T19:21:46.900Z,98148.73
2023-03-08T19:24:17.112Z,98149.64
2023-03-08T19:26:49.168Z,98152.30
2023-03-08T19:29:22.370Z,98152.16
2023-03-08T19:31:55.976Z,98147.00
2023-03-08T19:34:26.656Z,98144.71
2023-03-08T19:36:55.592Z,98142.04
2023-03-08T19:39:27.244Z,98141.84
2023-03-08T19:42:01.409Z,98145.93
2023-03-08T19:44:31.482Z,98151.74
2023-03-08T19:47:02.218Z,98159.85
2023-03-08T19:49:32.860Z,98160.99
2023-03-08T19:52:03.254Z,98166.02
2023-03-08T19:54:32.478Z,98155.49
2023-03-08T19:57:01.367Z,98168.20
2023-03-08T19:59:31.902Z,98168.29
2023-03-08T20:02:01.305Z,98165.35
2023-03-08T20:04:30.205Z,98166.52
2023-03-08T20:07:02.055Z,98164.35
2023-03-08T20:09:31.667Z,98161.32
2023-03-08T20:12:00.762Z,98160.66
2023-03-08T20:14:31.216Z,98152.48
2023-03-08T20:17:01.662Z,98153.50
2023-03-08T20:19:36.965Z,98151.94
2023-03-08T20:22:05.430Z,98147.19
2023-03-08T20:24:35.261Z,98153.55
2023-03-08T20:27:04.868Z,98150.54
2023-03-08T20:29:34.786Z,98142.98
2023-03-08T20:32:03.578Z,98127.95
2023-03-08T20:34:32.894Z,98126.83
2023-03-08T20:37:03.005Z,98117.84
2023-03-08T20:39:32.616Z,98116.41
2023-03-08T20:42:01.185Z,98113.00
2023-03-08T20:44:29.875Z,98114.53
2023-03-08T20:46:58.250Z,98106.69
2023-03-08T20:49:28.476Z,98104.33
2023-03-08T20:51:57.268Z,98106.50
2023-03-08T20:54:32.608Z,98111.14
2023-03-08T20:57:01.299Z,98104.45
2023-03-08T20:59:29.986Z,98103.73
2023-03-08T21:01:59.394Z,98099.27
2023-03-08T21:04:27.891Z,98097.29
2023-03-08T21:07:01.403Z,98094.73
2023-03-08T21:09:30.366Z,98086.77
2023-03-08T21:11:58.949Z,98089.02
2023-03-08T21:14:29.280Z,98085.85
2023-03-08T21:16:57.860Z,98081.35
2023-03-08T21:19:26.242Z,98082.16
2023-03-08T21:21:56.868Z,98077.48
2023-03-08T21:24:25.635Z,98078.85
2023-03-08T21:26:54.453Z,98081.95
2023-03-08T21:29:25.496Z,98081.55
2023-03-08T21:31:54.294Z,98080.55
2023-03-08T21:34:23.481Z,98080.47
2023-03-08T21:36:52.484Z,98077.41
2023-03-08T21:39:20.961Z,98076.88
2023-03-08T21:41:50.055Z,98074.45
2023-03-08T21:44:19.583Z,98077.45
2023-03-08T21:46:49.873Z,98075.42
2023-03-08T21:49:23.748Z,98073.69
2023-03-08T21:51:57.308Z,98069.11
2023-03-08T21:54:28.034Z,98064.00
2023-03-08T21:56:57.031Z,98062.89
2023-03-08T21:59:27.361Z,98065.80
2023-03-08T22:01:58.662Z,98068.50
2023-03-08T22:04:27.596Z,98065.24
2023-03-08T22:06:56.304Z,98068.31
2023-03-08T22:09:30.092Z,98063.09
2023-03-08T22:12:00.110Z,98063.03
2023-03-08T22:14:28.899Z,98060.94
2023-03-08T22:17:01.068Z,98057.65
2023-03-08T22:19:29.662Z,98055.60
2023-03-08T22:21:59.068Z,98051.29
2023-03-08T22:24:27.645Z,98050.55
2023-03-08T22:27:03.615Z,98044.30
2023-03-08T22:29:32.289Z,98038.51
2023-03-08T22:32:01.299Z,98042.13
2023-03-08T22:34:29.775Z,98046.23
2023-03-08T22:36:58.152Z,98050.61
2023-03-08T22:39:28.164Z,98055.13
2023-03-08T22:41:57.783Z,98057.85
2023-03-08T22:44:26.161Z,98057.23
2023-03-08T22:46:58.330Z,98060.02
2023-03-08T22:49:26.812Z,98060.65
2023-03-08T22:51:55.209Z,98061.36
2023-03-08T22:54:23.887Z,98057.83
2023-03-08T22:56:52.365Z,98061.72
2023-03-08T22:59:20.750Z,98053.09
2023-03-08T23:01:49.409Z,98056.83
2023-03-08T23:04:18.541Z,98055.79
2023-03-08T23:06:48.076Z,98053.73
2023-03-08T23:09:17.441Z,98049.17
2023-03-08T23:11:45.821Z,98043.40
2023-03-08T23:14:16.866Z,98047.52
2023-03-08T23:16:48.177Z,98042.55
2023-03-08T23:19:18.440Z,98042.80
2023-03-08T23:22:06.477Z,98033.76
2023-03-08T23:24:36.090Z,98034.56
2023-03-08T23:27:04.573Z,98030.84
2023-03-08T23:29:34.384Z,98024.63
2023-03-08T23:32:03.317Z,98028.36
2023-03-08T23:34:32.483Z,98023.70
2023-03-08T23:37:05.874Z,98025.21
2023-03-08T23:39:37.530Z,98026.85
2023-03-08T23:42:06.523Z,98019.38
2023-03-08T23:44:37.988Z,98020.63
2023-03-08T23:47:06.972Z,98012.66
2023-03-08T23:49:37.910Z,98004.70
2023-03-08T23:52:06.594Z,98008.87
2023-03-08T23:54:36.107Z,98000.63
2023-03-08T23:57:04.487Z,97992.40
2023-03-08T23:59:32.879Z,97981.09
